San Vicente (176, 240) Station Data

Red Flag Warning: No
Fire Weather Zone: 250
SDGE Region: Eastern
Lat/Lon: 32.913/-116.952

Observations

Time Wind Speed/Gust Temp(F) RH Fuel Moist Fuel Temp(F) Dewpt(F) Tmax(F) Tmin(F) Accum Precip 10-min Precip SL Press(mb)
5/24 8:30am 289 4 G 9 61° 100% - - 61° 62° 52.6° - - 909.0
5/24 8:20am 225 4 G 8 60° 100% - - 60° 60.5° 52.6° - - 909.0
5/24 8:10am 218 2 G 5 60° 100% - - 60° 60.3° 52.6° - - 910.0
5/24 8:00am 135 1 G 5 59° 100% - - 59° 59.8° 52.6° - - 910.0
5/24 7:50am 130 2 G 5 59° 100% - - 59° 59.2° 52.6° - - 910.0
5/24 7:40am 224 0 G 2 59° 100% - - 59° 59.1° 52.6° - - 910.0
5/24 7:30am 322 1 G 2 58° 100% - - 58° 58.8° 52.6° - - 910.0
5/24 7:20am 278 2 G 3 58° 100% - - 58° 58.8° 52.6° - - 910.0
5/24 7:10am 265 1 G 4 58° 100% - - 58° 58.8° 52.6° - - 910.0
5/24 7:00am 321 2 G 4 58° 100% - - 58° 58.8° 52.6° - - 910.0
5/24 6:50am 354 3 G 4 58° 100% - - 58° 58.8° 52.6° - - 909.0
5/24 6:40am 332 3 G 5 58° 100% - - 58° 58.8° 52.6° - - 909.0
5/24 6:30am 292 2 G 4 58° 100% - - 58° 58.8° 52.6° - - 909.0
5/24 6:20am 331 3 G 6 58° 100% - - 58° 58.8° 52.6° - - 909.0
5/24 6:10am 311 4 G 6 57° 100% - - 57° 58.8° 52.6° - - 909.0
5/24 6:00am 309 5 G 8 57° 100% - - 57° 58.8° 52.6° - - 909.0
5/24 5:50am 320 6 G 11 57° 100% - - 57° 58.8° 52.6° - - 909.0
5/24 5:40am 317 3 G 5 57° 100% - - 57° 58.8° 52.6° - - 909.0
5/24 5:30am 330 2 G 5 58° 100% - - 58° 58.8° 52.6° - - 909.0
5/24 5:20am 223 2 G 4 59° 100% - - 59° 58.8° 52.6° - - 910.0
5/24 5:10am 198 1 G 4 58° 100% - - 58° 58.7° 52.6° - - 910.0
5/24 5:00am 194 1 G 3 58° 100% - - 58° 58.5° 52.6° - - 909.0
5/24 4:50am 63 2 G 6 58° 100% - - 58° 58.4° 52.6° - - 909.0
5/24 4:40am 18 0 G 4 58° 100% - - 58° 58.3° 52.6° - - 909.0
5/24 4:30am 277 0 G 0 58° 100% - - 58° 58° 52.6° - - 909.0
5/24 4:20am 0 0 G 0 58° 100% - - 58° 57.8° 52.6° - - 909.0
5/24 4:10am 292 1 G 3 57° 100% - - 58° 57.7° 52.6° - - 909.0
5/24 4:00am 314 2 G 3 57° 100% - - 57° 57.7° 52.6° - - 909.0
5/24 3:50am 324 2 G 4 57° 100% - - 57° 57.7° 52.6° - - 909.0
5/24 3:40am 315 2 G 3 56° 100% - - 56° 57.7° 52.6° - - 909.0
5/24 3:30am 326 1 G 2 55° 100% - - 55° 57.7° 52.6° - - 908.0
5/24 3:20am 316 2 G 3 54° 100% - - 54° 57.7° 52.6° - - 908.0
5/24 3:10am 313 1 G 2 53° 100% - - 53° 57.7° 52.6° - - 907.0
5/24 3:00am 333 1 G 2 54° 100% - - 54° 57.7° 53.2° - - 908.0
5/24 2:50am 297 1 G 3 54° 100% - - 54° 57.7° 53.2° - - 908.0
5/24 2:40am 312 2 G 4 53° 100% - - 53° 57.7° 53.2° - - 907.0
5/24 2:30am 311 2 G 3 54° 100% - - 54° 57.7° 53.3° - - 907.0
5/24 2:20am 313 2 G 3 54° 100% - - 54° 57.7° 53.3° - - 907.0
5/24 2:10am 323 2 G 3 54° 100% - - 54° 57.7° 53.6° - - 907.0
5/24 2:00am 322 1 G 2 55° 100% - - 55° 57.7° 54° - - 907.0
5/24 1:50am 303 1 G 2 54° 100% - - 54° 57.7° 54° - - 907.0
5/24 1:40am 316 1 G 2 55° 100% - - 55° 57.7° 54.4° - - 907.0
5/24 1:30am 316 1 G 2 55° 100% - - 55° 57.7° 54.9° - - 907.0
5/24 1:20am 293 1 G 2 55° 100% - - 55° 57.7° 55.2° - - 907.0
5/24 1:10am 303 2 G 4 56° 100% - - 56° 57.7° 55.3° - - 907.0
5/24 1:00am 307 3 G 4 56° 100% - - 56° 57.7° 55.5° - - 907.0
5/24 12:50am 317 2 G 3 56° 100% - - 56° 57.7° 55.6° - - 907.0
5/24 12:40am 307 2 G 3 56° 100% - - 57° 57.7° 56.1° - - 907.0
5/24 12:30am 322 2 G 3 57° 100% - - 57° 57.7° 56.3° - - 907.0
5/24 12:20am 312 2 G 3 57° 100% - - 57° 57.7° 56.3° - - 906.0
5/24 12:10am 318 2 G 3 57° 100% - - 57° 57.7° 56.7° - - 906.0
5/24 12:00am 320 2 G 3 57° 100% - - 57° 88.2° 52.2° - - 906.0
5/23 11:50pm 324 2 G 3 58° 100% - - 58° 88.2° 52.2° - - 906.0
5/23 11:40pm 306 1 G 2 58° 100% - - 58° 88.2° 52.2° - - 905.0
5/23 11:30pm 318 2 G 2 58° 100% - - 58° 88.2° 52.2° - - 906.0
5/23 11:20pm 309 1 G 2 58° 100% - - 58° 88.2° 52.2° - - 905.0
5/23 11:10pm 318 1 G 3 59° 100% - - 59° 88.2° 52.2° - - 905.0
5/23 11:00pm 309 1 G 2 59° 100% - - 59° 88.2° 52.2° - - 905.0
5/23 10:50pm 322 2 G 2 59° 100% - - 59° 88.2° 52.2° - - 905.0
5/23 10:40pm 307 1 G 3 59° 100% - - 59° 88.2° 52.2° - - 904.0
5/23 10:30pm 317 1 G 2 60° 100% - - 60° 88.2° 52.2° - - 902.0
5/23 10:20pm 316 2 G 3 60° 100% - - 60° 88.2° 52.2° - - 901.0
5/23 10:10pm 304 2 G 3 60° 100% - - 60° 88.2° 52.2° - - 901.0
5/23 10:00pm 312 1 G 3 61° 98% - - 60° 88.2° 52.2° - - 897.0
5/23 9:50pm 317 2 G 3 62° 90% - - 59° 88.2° 52.2° - - 894.0
5/23 9:40pm 316 1 G 2 63° 79% - - 56° 88.2° 52.2° - - 890.0
5/23 9:30pm 295 1 G 2 64° 74% - - 56° 88.2° 52.2° - - 888.0
5/23 9:20pm 343 2 G 4 64° 75% - - 56° 88.2° 52.2° - - 889.0
5/23 9:10pm 309 2 G 4 65° 71% - - 55° 88.2° 52.2° - - 888.0
5/23 9:00pm 317 4 G 5 65° 71% - - 56° 88.2° 52.2° - - 888.0
5/23 8:50pm 314 2 G 4 66° 70% - - 56° 88.2° 52.2° - - 888.0
5/23 8:40pm 322 2 G 4 66° 68% - - 55° 88.2° 52.2° - - 887.0
5/23 8:30pm 315 1 G 2 67° 65% - - 55° 88.2° 52.2° - - 886.0
5/23 8:20pm 266 1 G 2 69° 62% - - 55° 88.2° 52.2° - - 886.0
5/23 8:10pm 329 1 G 4 70° 60% - - 55° 88.2° 52.2° - - 885.0
5/23 8:00pm 324 3 G 4 70° 59% - - 55° 88.2° 52.2° - - 886.0
5/23 7:50pm 318 3 G 5 71° 58% - - 55° 88.2° 52.2° - - 886.0
5/23 7:40pm 319 2 G 3 72° 55% - - 55° 88.2° 52.2° - - 885.0
5/23 7:30pm 324 3 G 5 74° 52% - - 55° 88.2° 52.2° - - 885.0
5/23 7:20pm 305 2 G 4 75° 50% - - 55° 88.2° 52.2° - - 885.0
5/23 7:10pm 307 3 G 6 76° 46% - - 54° 88.2° 52.2° - - 884.0
5/23 7:00pm 285 3 G 5 78° 43% - - 54° 88.2° 52.2° - - 884.0
5/23 6:50pm 290 3 G 8 79° 41% - - 53° 88.2° 52.2° - - 883.0
5/23 6:40pm 294 4 G 7 80° 39% - - 53° 88.2° 52.2° - - 883.0
5/23 6:30pm 296 4 G 9 81° 38% - - 53° 88.2° 52.2° - - 883.0
5/23 6:20pm 294 5 G 9 81° 37% - - 53° 88.2° 52.2° - - 883.0
5/23 6:10pm 304 6 G 12 82° 37% - - 53° 88.2° 52.2° - - 884.0
5/23 6:00pm 316 8 G 12 83° 34% - - 51° 88.2° 52.2° - - 883.0
5/23 5:50pm 304 6 G 11 86° 29% - - 50° 88.2° 52.2° - - 882.0
5/23 5:40pm 294 4 G 9 86° 27% - - 48° 88.2° 52.2° - - 882.0
5/23 5:30pm 299 5 G 11 86° 25% - - 46° 88.2° 52.2° - - 881.0
5/23 5:20pm 266 5 G 8 87° 25% - - 46° 88.2° 52.2° - - 881.0
5/23 5:10pm 294 4 G 8 87° 24% - - 46° 88.2° 52.2° - - 880.0
5/23 5:00pm 298 5 G 10 87° 23% - - 45° 88.2° 52.2° - - 880.0
5/23 4:50pm 306 4 G 8 87° 24% - - 46° 88.2° 52.2° - - 880.0
5/23 4:40pm 299 5 G 10 87° 25% - - 47° 88.2° 52.2° - - 881.0
5/23 4:30pm 306 5 G 10 87° 27% - - 48° 88.2° 52.2° - - 881.0
5/23 4:20pm 308 5 G 9 86° 27% - - 48° 88.2° 52.2° - - 881.0
5/23 4:10pm 277 4 G 8 86° 25% - - 46° 88.2° 52.2° - - 880.0
5/23 4:00pm 293 4 G 10 85° 26% - - 46° 88.2° 52.2° - - 880.0
5/23 3:50pm 317 6 G 10 85° 27% - - 47° 88.2° 52.2° - - 880.0
5/23 3:40pm 290 4 G 9 85° 30% - - 50° 88.2° 52.2° - - 881.0
5/23 3:30pm 303 4 G 11 84° 32% - - 51° 88.2° 52.2° - - 881.0
5/23 3:20pm 269 4 G 10 83° 35% - - 52° 88.2° 52.2° - - 881.0
5/23 3:10pm 300 4 G 9 82° 37% - - 54° 88.2° 52.2° - - 882.0
5/23 3:00pm 259 4 G 10 81° 39% - - 54° 88.2° 52.2° - - 882.0
5/23 2:50pm 323 5 G 8 80° 42% - - 55° 88.2° 52.2° - - 883.0
5/23 2:40pm 326 7 G 11 79° 44% - - 55° 88.2° 52.2° - - 883.0
5/23 2:30pm 312 6 G 12 79° 45% - - 56° 88.2° 52.2° - - 883.0
5/23 2:20pm 323 6 G 10 78° 47% - - 56° 88.2° 52.2° - - 884.0
5/23 2:10pm 315 6 G 12 79° 46% - - 56° 88.2° 52.2° - - 883.0
5/23 2:00pm 282 4 G 10 79° 47% - - 57° 88.2° 52.2° - - 884.0
5/23 1:50pm 314 6 G 11 77° 49% - - 56° 88.2° 52.2° - - 884.0
5/23 1:40pm 296 6 G 13 78° 48% - - 57° 88.2° 52.2° - - 884.0
5/23 1:30pm 307 6 G 12 77° 49% - - 57° 88.2° 52.2° - - 884.0
5/23 1:20pm 296 7 G 14 78° 49% - - 57° 88.2° 52.2° - - 884.0
5/23 1:10pm 295 7 G 12 77° 50% - - 57° 88.2° 52.2° - - 884.0
5/23 1:00pm 302 8 G 13 77° 51% - - 57° 88.2° 52.2° - - 885.0
5/23 12:50pm 301 8 G 15 77° 51% - - 57° 88.2° 52.2° - - 885.0
5/23 12:40pm 311 9 G 15 77° 50% - - 57° 88.2° 52.2° - - 885.0
5/23 12:30pm 306 9 G 16 78° 48% - - 57° 88.2° 52.2° - - 885.0
5/23 12:20pm 300 8 G 15 80° 46% - - 57° 88.2° 52.2° - - 885.0
5/23 12:10pm 302 9 G 15 81° 44% - - 57° 88.2° 52.2° - - 885.0
5/23 12:00pm 276 6 G 12 82° 43% - - 57° 88.2° 52.2° - - 885.0
5/23 11:50am 259 6 G 13 82° 42% - - 57° 88.2° 52.2° - - 885.0
5/23 11:40am 224 7 G 13 83° 40% - - 56° 88.2° 52.2° - - 884.0
5/23 11:30am 232 6 G 12 86° 34% - - 54° 88.2° 52.2° - - 883.0
5/23 11:20am 223 5 G 13 87° 29% - - 51° 88.2° 52.2° - - 881.0
5/23 11:10am 152 5 G 9 88° 27% - - 49° 88° 52.2° - - 880.0
5/23 11:00am 127 6 G 9 87° 26% - - 48° 87.4° 52.2° - - 880.0
5/23 10:50am 122 6 G 9 87° 26% - - 48° 87.2° 52.2° - - 880.0
5/23 10:40am 122 4 G 6 86° 25% - - 46° 86.6° 52.2° - - 879.0
5/23 10:30am 138 3 G 6 85° 26% - - 47° 85.2° 52.2° - - 879.0
5/23 10:20am 146 2 G 4 84° 28% - - 48° 84.8° 52.2° - - 879.0
5/23 10:10am 158 2 G 4 82° 31% - - 48° 82.8° 52.2° - - 879.0
5/23 10:00am 139 2 G 4 80° 32% - - 47° 81.3° 52.2° - - 879.0
5/23 9:50am 154 2 G 4 78° 38% - - 51° 78.9° 52.2° - - 880.0
5/23 9:40am 152 3 G 4 77° 43% - - 53° 77.4° 52.2° - - 882.0
5/23 9:30am 134 2 G 4 75° 44% - - 52° 76.8° 52.2° - - 881.0
5/23 9:20am 92 2 G 4 73° 51% - - 54° 74.1° 52.2° - - 883.0
5/23 9:10am 135 2 G 4 71° 57% - - 55° 72.2° 52.2° - - 885.0
5/23 9:00am 110 2 G 3 70° 64% - - 57° 70.8° 52.2° - - 887.0
5/23 8:50am 100 2 G 3 68° 74% - - 59° 68.9° 52.2° - - 890.0
5/23 8:40am 95 2 G 3 66° 92% - - 63° 67.2° 52.2° - - 897.0
5/23 8:30am 106 2 G 4 64° 100% - - 64° 65.1° 52.2° - - 901.0
5/23 8:20am 147 2 G 3 63° 100% - - 63° 63.9° 52.2° - - 904.0
5/23 8:10am 155 3 G 5 62° 100% - - 62° 62.7° 52.2° - - 905.0
5/23 8:00am 132 4 G 5 62° 100% - - 62° 62.1° 52.2° - - 906.0
5/23 7:50am 118 4 G 6 61° 100% - - 61° 61.4° 52.2° - - 907.0
5/23 7:40am 121 2 G 4 60° 100% - - 60° 60.7° 52.2° - - 909.0
5/23 7:30am 151 1 G 2 59° 100% - - 59° 60.1° 52.2° - - 910.0
5/23 7:20am 150 1 G 2 59° 100% - - 59° 59.6° 52.2° - - 910.0
5/23 7:10am 340 0 G 1 58° 100% - - 58° 59.2° 52.2° - - 909.0
5/23 7:00am 332 1 G 1 57° 100% - - 57° 57.5° 52.2° - - 909.0
5/23 6:50am 332 1 G 2 55° 100% - - 55° 57.5° 52.2° - - 908.0
5/23 6:40am 315 1 G 2 54° 100% - - 54° 57.5° 52.2° - - 908.0
5/23 6:30am 314 1 G 2 54° 100% - - 54° 57.5° 52.2° - - 908.0
5/23 6:20am 315 1 G 2 53° 100% - - 53° 57.5° 52.2° - - 908.0
5/23 6:10am 311 2 G 3 53° 100% - - 53° 57.5° 52.2° - - 908.0
5/23 6:00am 314 2 G 3 53° 100% - - 53° 57.5° 52.2° - - 908.0